Drummond, MI

11:19 AM EDT on July 04, 2015 (GMT -0400)
Potagannissing Bay Front | | Change Station
CLOSE
Current Station
Personal Weather Station
Location: Drummond Island, MI
Elevation: 587 ft
Nearby Weather Stations

Elev 587 ft 46.06 °N, 83.67 °W | Updated 8 seconds ago

Clear
Clear
65.0 °F
Feels Like 65.0 °F
N
4.0
Wind Variable Wind from NNW
Gusts 6.0 mph

Today
High -- | Low -- °F
--% Chance of Precip.
Yesterday
High -- | Low -- °F
Precip. -- in
5:48 AM 9:28 PM
Waning Gibbous, 92% visible
Pressure 29.95 in
Visibility 10.0 miles
Clouds Clear
Dew Point 59 °F
Humidity 82%
Rainfall 0.00 in
Snow Depth Not available.
UV 8 out of 12
Pollen 4.40 out of 12
Air Quality Not available.
Flu Activity Not available.
METAR KDRM 041515Z AUTO 01004KT 10SM CLR 19/14 A2995 RMK AO2 T01940138

More Conditions Fewer Conditions

Pressure 29.95 in
Visibility 10.0 miles
Clouds Clear
Dew Point 59 °F
Humidity 82%
Rainfall 0.00 in
Snow Depth Not available.
UV 8 out of 12
Pollen 4.40 out of 12
Air Quality Not available.
Flu Activity Not available.
METAR KDRM 041515Z AUTO 01004KT 10SM CLR 19/14 A2995 RMK AO2 T01940138

More Conditions Fewer Conditions

Nowcast | as of 11:00 am EDT on July 4, 2015

At 12 PM...partly cloudy. Temperature 64. Northwest winds 7 mph. At 2 PM...mostly clear. Temperature 69. Northwest winds 9 mph. At 4 PM...mostly clear. Temperature 69. Northwest winds 10 mph. At 6 PM...mostly clear. Temperature 67. Northwest winds 9 mph.

×

10-Day Weather Forecast

×

Almanac

Astronomy

Jul. 04, 2015 Rise Set
Actual Time
Civil Twilight
Nautical Twilight
Astronomical Twilight
Moon
Length of Visible Light
Length of Day
Tomorrow will be .
, % of the Moon is Illuminated

Today's Extremes

State Highs State Lows

Community

WunderPhotos

Upload Photos

1,834,986 photos uploaded!

WunderBlogs® & News

Nearby

Air Quality

  Air Quality AQ Index Pollutant
Not available.

Snow Depth

Station Depth Elevation

Earthquake Activity

City Distance Mag. Time & Date
Minimum magnitude displayed is 2.5.

Coastal Water Temperatures

Place Temperature

Stations

Nearby Weather Stations

Station Location Temp. Windchill Dew Point Humidity Wind Precip. Elev Updated Type